Bottineau, North Dakota
Current Conditions -  °F | °C
As of 4:55 PM on Thursday 23 Oct 2014 (Local Time) from KRUG Reporting Station
Clear Clear  
Wind Chill: 64°   Ceiling: Unl
Heat Index: 64°   Visibility: 10mi
Dew Point: 36°   Wind: 9mph
Humidity: 34%   Direction: 210°SSW
Pressure: 29.75"   Gusts: NA
Location:  48.83°N, 100.45°W
Report Text: KRUG 232155Z AUTO 21008KT 10SM CLR 18/02 A2975 RMK AO2
Loading
Personal Weather Stations






























Interactive Weather Map
Tropical Storm Tracking
New forecast layout! Learn more

10-Day Weather Forecast

Advertisements
Track Severe Weather on mobile